createdAt,value
2022-10-07T00:02:49.866Z,96216
2022-10-07T00:06:15.588Z,96212
2022-10-07T00:09:41.275Z,96210
2022-10-07T00:13:07.000Z,96207
2022-10-07T00:16:32.714Z,96211
2022-10-07T00:19:58.394Z,96212
2022-10-07T00:23:24.122Z,96212
2022-10-07T00:26:49.840Z,96213
2022-10-07T00:30:15.758Z,96203
2022-10-07T00:33:41.243Z,96197
2022-10-07T00:37:06.788Z,96195
2022-10-07T00:40:32.047Z,96191
2022-10-07T00:43:57.292Z,96185
2022-10-07T00:47:22.622Z,96177
2022-10-07T00:50:48.577Z,96183
2022-10-07T00:54:13.817Z,96173
2022-10-07T00:57:39.054Z,96173
2022-10-07T01:01:04.308Z,96163
2022-10-07T01:04:29.595Z,96160
2022-10-07T01:07:58.381Z,96158
2022-10-07T01:11:19.950Z,96159
2022-10-07T01:14:45.159Z,96153
2022-10-07T01:18:10.384Z,96153
2022-10-07T01:21:35.643Z,96148
2022-10-07T01:25:00.855Z,96147
2022-10-07T01:28:26.182Z,96145
2022-10-07T01:31:51.327Z,96145
2022-10-07T01:35:16.580Z,96134
2022-10-07T01:38:41.823Z,96127
2022-10-07T01:42:07.021Z,96122
2022-10-07T01:45:32.231Z,96113
2022-10-07T01:48:57.454Z,96111
2022-10-07T01:52:22.689Z,96108
2022-10-07T01:55:47.944Z,96102
2022-10-07T01:59:13.134Z,96096
2022-10-07T02:02:38.370Z,96091
2022-10-07T02:06:03.617Z,96097
2022-10-07T02:09:28.838Z,96088
2022-10-07T02:12:54.094Z,96091
2022-10-07T02:16:19.369Z,96083
2022-10-07T02:19:44.520Z,96085
2022-10-07T02:23:09.757Z,96075
2022-10-07T02:26:34.966Z,96069
2022-10-07T02:30:00.208Z,96073
2022-10-07T02:33:25.423Z,96072
2022-10-07T02:36:50.623Z,96064
2022-10-07T02:40:15.863Z,96057
2022-10-07T02:43:41.080Z,96065
2022-10-07T02:47:06.353Z,96059
2022-10-07T02:50:31.530Z,96057
2022-10-07T02:53:56.743Z,96051
2022-10-07T02:57:21.982Z,96051
2022-10-07T03:00:47.192Z,96052
2022-10-07T03:04:12.485Z,96054
2022-10-07T03:07:37.658Z,96054
2022-10-07T03:11:02.884Z,96050
2022-10-07T03:14:28.104Z,96042
2022-10-07T03:17:53.315Z,96038
2022-10-07T03:21:18.550Z,96041
2022-10-07T03:24:43.746Z,96038
2022-10-07T03:28:08.977Z,96044
2022-10-07T03:31:34.198Z,96038
2022-10-07T03:34:59.414Z,96039
2022-10-07T03:38:24.718Z,96038
2022-10-07T03:41:49.860Z,96028
2022-10-07T03:45:15.075Z,96031
2022-10-07T03:48:40.275Z,96033
2022-10-07T03:52:05.491Z,96029
2022-10-07T03:55:30.751Z,96030
2022-10-07T03:58:55.927Z,96025
2022-10-07T04:02:21.195Z,96018
2022-10-07T04:05:46.409Z,96024
2022-10-07T04:09:11.826Z,96018
2022-10-07T04:12:37.026Z,96016
2022-10-07T04:16:02.158Z,96009
2022-10-07T04:19:27.342Z,96008
2022-10-07T04:22:52.520Z,96007
2022-10-07T04:26:17.698Z,95999
2022-10-07T04:29:42.871Z,95998
2022-10-07T04:33:08.016Z,95988
2022-10-07T04:36:33.195Z,95980
2022-10-07T04:40:00.868Z,95979
2022-10-07T04:43:23.735Z,95974
2022-10-07T04:46:48.993Z,95983
2022-10-07T04:50:14.144Z,95978
2022-10-07T04:53:39.367Z,95976
2022-10-07T04:57:04.577Z,95975
2022-10-07T05:00:29.857Z,95969
2022-10-07T05:03:55.016Z,95967
2022-10-07T05:07:20.173Z,95966
2022-10-07T05:10:45.357Z,95965
2022-10-07T05:14:10.512Z,95960
2022-10-07T05:17:35.670Z,95958
2022-10-07T05:21:00.846Z,95962
2022-10-07T05:24:26.029Z,95958
2022-10-07T05:27:51.244Z,95955
2022-10-07T05:31:16.422Z,95953
2022-10-07T05:34:41.604Z,95947
2022-10-07T05:38:06.787Z,95949
2022-10-07T05:41:32.017Z,95943
2022-10-07T05:44:57.231Z,95933
2022-10-07T05:48:22.424Z,95932
2022-10-07T05:51:47.585Z,95930
2022-10-07T05:55:12.794Z,95926
2022-10-07T05:58:38.001Z,95926
2022-10-07T06:02:03.349Z,95926
2022-10-07T06:05:28.434Z,95926
2022-10-07T06:08:53.641Z,95929
2022-10-07T06:12:18.907Z,95920
2022-10-07T06:15:44.101Z,95923
2022-10-07T06:19:09.306Z,95916
2022-10-07T06:22:34.550Z,95913
2022-10-07T06:25:59.780Z,95914
2022-10-07T06:29:25.019Z,95914
2022-10-07T06:32:50.232Z,95913
2022-10-07T06:36:15.450Z,95920
2022-10-07T06:39:40.682Z,95917
2022-10-07T06:43:05.922Z,95921
2022-10-07T06:46:31.246Z,95920
2022-10-07T06:49:56.359Z,95918
2022-10-07T06:53:21.580Z,95919
2022-10-07T06:56:46.796Z,95925
2022-10-07T07:00:12.004Z,95918
2022-10-07T07:03:37.263Z,95923
2022-10-07T07:07:02.461Z,95925
2022-10-07T07:10:27.709Z,95922
2022-10-07T07:13:52.946Z,95915
2022-10-07T07:17:18.154Z,95927
2022-10-07T07:20:43.381Z,95920
2022-10-07T07:24:08.590Z,95913
2022-10-07T07:27:33.805Z,95906
2022-10-07T07:30:59.107Z,95908
2022-10-07T07:34:24.306Z,95911
2022-10-07T07:37:49.568Z,95903
2022-10-07T07:41:14.764Z,95902
2022-10-07T07:44:39.980Z,95903
2022-10-07T07:48:05.253Z,95903
2022-10-07T07:51:30.468Z,95903
2022-10-07T07:54:55.699Z,95899
2022-10-07T07:58:20.924Z,95899
2022-10-07T08:01:46.155Z,95897
2022-10-07T08:05:11.366Z,95893
2022-10-07T08:08:36.605Z,95900
2022-10-07T08:12:01.844Z,95896
2022-10-07T08:15:27.049Z,95893
2022-10-07T08:18:52.269Z,95896
2022-10-07T08:22:17.640Z,95888
2022-10-07T08:25:42.728Z,95885
2022-10-07T08:29:07.967Z,95883
2022-10-07T08:32:33.183Z,95882
2022-10-07T08:35:58.422Z,95883
2022-10-07T08:39:23.643Z,95883
2022-10-07T08:42:48.907Z,95879
2022-10-07T08:46:14.224Z,95879
2022-10-07T08:49:39.354Z,95876
2022-10-07T08:53:04.560Z,95875
2022-10-07T08:56:29.766Z,95874
2022-10-07T08:59:54.988Z,95866
2022-10-07T09:03:24.192Z,95863
2022-10-07T09:06:45.463Z,95862
2022-10-07T09:10:10.690Z,95862
2022-10-07T09:13:35.931Z,95853
2022-10-07T09:17:01.171Z,95855
2022-10-07T09:20:26.417Z,95854
2022-10-07T09:23:51.618Z,95850
2022-10-07T09:27:16.851Z,95843
2022-10-07T09:30:42.134Z,95843
2022-10-07T09:34:07.332Z,95843
2022-10-07T09:37:32.613Z,95839
2022-10-07T09:40:57.808Z,95828
2022-10-07T09:44:23.028Z,95821
2022-10-07T09:47:48.493Z,95823
2022-10-07T09:51:13.487Z,95821
2022-10-07T09:54:38.838Z,95814
2022-10-07T09:58:03.948Z,95822
2022-10-07T10:01:29.182Z,95810
2022-10-07T10:04:54.437Z,95813
2022-10-07T10:08:19.677Z,95810
2022-10-07T10:11:44.930Z,95806
2022-10-07T10:15:10.146Z,95806
2022-10-07T10:18:35.359Z,95799
2022-10-07T10:22:00.602Z,95799
2022-10-07T10:25:25.832Z,95789
2022-10-07T10:28:51.080Z,95784
2022-10-07T10:32:16.296Z,95779
2022-10-07T10:35:41.522Z,95773
2022-10-07T10:39:06.759Z,95773
2022-10-07T10:42:31.992Z,95769
2022-10-07T10:45:57.813Z,95769
2022-10-07T10:49:23.372Z,95763
2022-10-07T10:52:48.552Z,95761
2022-10-07T10:56:13.795Z,95756
2022-10-07T10:59:39.038Z,95748
2022-10-07T11:03:04.405Z,95744
2022-10-07T11:06:29.428Z,95746
2022-10-07T11:09:54.595Z,95740
2022-10-07T11:13:20.085Z,95738
2022-10-07T11:16:45.481Z,95731
2022-10-07T11:20:10.763Z,95728
2022-10-07T11:23:36.933Z,95717
2022-10-07T11:27:02.142Z,95716
2022-10-07T11:30:27.374Z,95711
2022-10-07T11:33:52.535Z,95709
2022-10-07T11:37:17.795Z,95701
2022-10-07T11:40:42.986Z,95685
2022-10-07T11:44:08.181Z,95684
2022-10-07T11:47:33.372Z,95679
2022-10-07T11:50:58.613Z,95672
2022-10-07T11:54:23.846Z,95666
2022-10-07T11:57:49.047Z,95661
2022-10-07T12:01:14.292Z,95663
2022-10-07T12:04:39.514Z,95650
2022-10-07T12:08:04.695Z,95648
2022-10-07T12:11:29.990Z,95645
2022-10-07T12:14:55.146Z,95641
2022-10-07T12:18:20.405Z,95639
2022-10-07T12:21:45.657Z,95639
2022-10-07T12:25:11.313Z,95635
2022-10-07T12:28:36.227Z,95629
2022-10-07T12:32:01.407Z,95616
2022-10-07T12:35:26.579Z,95614
2022-10-07T12:38:51.823Z,95606
2022-10-07T12:42:17.081Z,95602
2022-10-07T12:45:42.475Z,95605
2022-10-07T12:49:07.554Z,95600
2022-10-07T12:52:32.815Z,95594
2022-10-07T12:55:58.072Z,95594
2022-10-07T12:59:23.324Z,95587
2022-10-07T13:02:48.823Z,95596
2022-10-07T13:06:13.857Z,95588
2022-10-07T13:09:39.090Z,95585
2022-10-07T13:13:04.404Z,95583
2022-10-07T13:16:29.676Z,95577
2022-10-07T13:19:54.845Z,95572
2022-10-07T13:23:23.319Z,95571
2022-10-07T13:26:45.275Z,95565
2022-10-07T13:30:10.506Z,95560
2022-10-07T13:33:35.755Z,95558
2022-10-07T13:37:01.022Z,95553
2022-10-07T13:40:26.271Z,95543
2022-10-07T13:43:51.517Z,95541
2022-10-07T13:47:16.763Z,95534
2022-10-07T13:50:42.004Z,95530
2022-10-07T13:54:07.226Z,95525
2022-10-07T13:57:32.490Z,95525
2022-10-07T14:00:57.744Z,95524
2022-10-07T14:04:23.010Z,95520
2022-10-07T14:07:48.279Z,95510
2022-10-07T14:11:13.622Z,95508
2022-10-07T14:14:38.737Z,95505
2022-10-07T14:18:04.034Z,95496
2022-10-07T14:21:29.335Z,95500
2022-10-07T14:24:54.589Z,95492
2022-10-07T14:28:19.859Z,95490
2022-10-07T15:06:29.406Z,95443
2022-10-07T15:09:54.612Z,95444
2022-10-07T15:13:19.832Z,95436
2022-10-07T15:16:45.102Z,95433
2022-10-07T15:20:10.350Z,95431
2022-10-07T15:23:35.683Z,95430
2022-10-07T15:27:00.898Z,95427
2022-10-07T15:30:26.138Z,95427
2022-10-07T15:33:51.397Z,95433
2022-10-07T15:37:16.661Z,95433
2022-10-07T15:40:41.903Z,95429
2022-10-07T15:44:07.104Z,95429
2022-10-07T15:47:32.345Z,95430
2022-10-07T15:50:57.556Z,95426
2022-10-07T15:54:22.775Z,95425
2022-10-07T15:57:48.023Z,95420
2022-10-07T16:01:13.258Z,95416
2022-10-07T16:04:38.409Z,95422
2022-10-07T16:08:03.646Z,95416
2022-10-07T16:11:28.858Z,95415
2022-10-07T16:14:54.110Z,95415
2022-10-07T16:18:19.245Z,95413
2022-10-07T16:21:44.465Z,95410
2022-10-07T16:25:09.848Z,95419
2022-10-07T16:28:35.051Z,95413
2022-10-07T16:32:00.304Z,95412
2022-10-07T16:35:25.460Z,95410
2022-10-07T16:38:50.643Z,95408
2022-10-07T16:42:15.817Z,95410
2022-10-07T16:45:40.975Z,95402
2022-10-07T16:49:06.178Z,95402
2022-10-07T16:52:31.334Z,95408
2022-10-07T16:55:56.494Z,95404
2022-10-07T16:59:22.847Z,95403
2022-10-07T17:02:46.825Z,95402
2022-10-07T17:06:12.068Z,95403
2022-10-07T17:09:37.304Z,95401
2022-10-07T17:13:02.542Z,95398
2022-10-07T17:16:27.852Z,95402
2022-10-07T17:19:53.003Z,95404
2022-10-07T17:23:18.260Z,95408
2022-10-07T17:26:43.461Z,95406
2022-10-07T17:30:08.682Z,95402
2022-10-07T17:33:34.731Z,95409
2022-10-07T17:36:59.972Z,95397
2022-10-07T17:40:25.238Z,95395
2022-10-07T17:43:50.456Z,95401
2022-10-07T17:47:15.687Z,95401
2022-10-07T17:50:40.903Z,95393
2022-10-07T17:54:06.303Z,95396
2022-10-07T17:57:31.415Z,95395
2022-10-07T18:00:56.686Z,95391
2022-10-07T18:04:24.920Z,95400
2022-10-07T18:07:47.231Z,95401
2022-10-07T18:11:12.227Z,95395
2022-10-07T18:14:37.413Z,95391
2022-10-07T18:18:02.616Z,95383
2022-10-07T18:21:27.804Z,95384
2022-10-07T18:24:53.088Z,95381
2022-10-07T18:28:18.396Z,95383
2022-10-07T18:31:43.789Z,95381
2022-10-07T18:35:08.829Z,95379
2022-10-07T18:38:34.024Z,95383
2022-10-07T18:41:59.212Z,95374
2022-10-07T18:45:24.434Z,95373
2022-10-07T18:48:49.680Z,95370
2022-10-07T18:52:14.811Z,95371
2022-10-07T18:55:39.995Z,95369
2022-10-07T18:59:05.191Z,95363
2022-10-07T19:02:30.393Z,95355
2022-10-07T19:05:55.593Z,95349
2022-10-07T19:09:20.810Z,95359
2022-10-07T19:12:45.987Z,95361
2022-10-07T19:16:11.206Z,95359
2022-10-07T19:19:36.385Z,95360
2022-10-07T19:23:01.610Z,95353
2022-10-07T19:26:26.778Z,95359
2022-10-07T19:29:51.964Z,95363
2022-10-07T19:33:17.124Z,95354
2022-10-07T19:36:42.343Z,95353
2022-10-07T19:40:07.556Z,95352
2022-10-07T19:43:32.772Z,95350
2022-10-07T19:46:58.006Z,95343
2022-10-07T19:50:23.157Z,95337
2022-10-07T19:53:48.390Z,95333
2022-10-07T19:57:13.599Z,95337
2022-10-07T20:00:38.810Z,95332
2022-10-07T20:04:04.016Z,95327
2022-10-07T20:07:29.224Z,95326
2022-10-07T20:10:54.500Z,95320
2022-10-07T20:14:19.709Z,95320
2022-10-07T20:17:45.102Z,95321
2022-10-07T20:21:10.130Z,95311
2022-10-07T20:24:35.359Z,95312
2022-10-07T20:28:00.623Z,95313
2022-10-07T20:31:25.890Z,95308
2022-10-07T20:34:50.985Z,95311
2022-10-07T20:38:16.234Z,95312
2022-10-07T20:41:41.445Z,95317
2022-10-07T20:45:06.637Z,95315
2022-10-07T20:48:31.845Z,95310
2022-10-07T20:51:56.997Z,95297
2022-10-07T20:55:22.214Z,95294
2022-10-07T20:58:47.378Z,95286
2022-10-07T21:02:12.582Z,95280
2022-10-07T21:05:37.788Z,95287
2022-10-07T21:09:02.994Z,95282
2022-10-07T21:12:28.228Z,95281
2022-10-07T21:15:53.442Z,95271
2022-10-07T21:19:18.603Z,95265
2022-10-07T21:22:44.166Z,95263
2022-10-07T21:26:08.984Z,95252
2022-10-07T21:29:37.677Z,95248
2022-10-07T21:32:59.359Z,95246
2022-10-07T21:36:24.572Z,95241
2022-10-07T21:39:49.774Z,95234
2022-10-07T21:43:14.910Z,95242
2022-10-07T21:46:40.175Z,95231
2022-10-07T21:50:05.303Z,95220
2022-10-07T21:53:30.475Z,95224
2022-10-07T21:56:55.667Z,95226
2022-10-07T22:00:20.793Z,95233
2022-10-07T22:03:45.943Z,95239
2022-10-07T22:07:11.133Z,95235
2022-10-07T22:10:36.338Z,95230
2022-10-07T22:14:01.547Z,95217
2022-10-07T22:17:26.698Z,95207
2022-10-07T22:20:51.860Z,95204
2022-10-07T22:24:17.065Z,95198
2022-10-07T22:27:42.237Z,95193
2022-10-07T22:31:07.500Z,95196
2022-10-07T22:34:32.611Z,95189
2022-10-07T22:37:57.758Z,95178
2022-10-07T22:41:22.926Z,95174
2022-10-07T22:44:48.094Z,95175
2022-10-07T22:48:13.302Z,95182
2022-10-07T22:51:38.455Z,95181
2022-10-07T22:55:03.675Z,95181
2022-10-07T22:58:28.842Z,95181
2022-10-07T23:01:53.987Z,95184
2022-10-07T23:05:19.188Z,95179
2022-10-07T23:08:44.341Z,95167
2022-10-07T23:12:09.505Z,95171
2022-10-07T23:15:34.764Z,95171
2022-10-07T23:18:59.870Z,95169
2022-10-07T23:22:25.056Z,95162
2022-10-07T23:25:50.248Z,95155
2022-10-07T23:29:15.467Z,95152
2022-10-07T23:32:40.603Z,95152
2022-10-07T23:36:05.790Z,95151
2022-10-07T23:39:31.001Z,95151
2022-10-07T23:42:56.176Z,95149
2022-10-07T23:46:21.365Z,95140
2022-10-07T23:49:46.497Z,95138
2022-10-07T23:53:11.693Z,95142
2022-10-07T23:56:36.887Z,95137
